sensor_id;sensor_type;location;lat;lon;timestamp;temperature;humidity
9265;DHT22;4669;49.594;10.958;2022-09-28T04:22:51;9.30;99.90
9265;DHT22;4669;49.594;10.958;2022-09-28T04:27:53;9.30;99.90
9265;DHT22;4669;49.594;10.958;2022-09-28T04:33:27;9.30;99.90
9265;DHT22;4669;49.594;10.958;2022-09-28T04:38:31;9.20;99.90
9265;DHT22;4669;49.594;10.958;2022-09-28T04:43:33;9.30;99.90
9265;DHT22;4669;49.594;10.958;2022-09-28T04:48:36;9.30;99.90
9265;DHT22;4669;49.594;10.958;2022-09-28T04:53:57;9.40;99.90
9265;DHT22;4669;49.594;10.958;2022-09-28T04:58:59;9.40;99.90
9265;DHT22;4669;49.594;10.958;2022-09-28T05:04:02;9.40;99.90
9265;DHT22;4669;49.594;10.958;2022-09-28T05:09:23;9.40;99.90
9265;DHT22;4669;49.594;10.958;2022-09-28T05:14:25;9.40;99.90
9265;DHT22;4669;49.594;10.958;2022-09-28T05:19:28;9.40;99.90
9265;DHT22;4669;49.594;10.958;2022-09-28T05:24:39;9.40;99.90
9265;DHT22;4669;49.594;10.958;2022-09-28T05:29:41;9.50;99.90
9265;DHT22;4669;49.594;10.958;2022-09-28T05:35:01;9.50;99.90
9265;DHT22;4669;49.594;10.958;2022-09-28T05:40:14;9.50;99.90
9265;DHT22;4669;49.594;10.958;2022-09-28T05:45:16;9.50;99.90
9265;DHT22;4669;49.594;10.958;2022-09-28T05:50:19;9.50;99.90
9265;DHT22;4669;49.594;10.958;2022-09-28T05:55:23;9.50;99.90
9265;DHT22;4669;49.594;10.958;2022-09-28T06:00:25;9.60;99.90
9265;DHT22;4669;49.594;10.958;2022-09-28T06:05:29;9.50;99.90
9265;DHT22;4669;49.594;10.958;2022-09-28T06:10:33;9.60;99.90
9265;DHT22;4669;49.594;10.958;2022-09-28T06:15:36;9.50;99.90
9265;DHT22;4669;49.594;10.958;2022-09-28T06:20:39;9.70;99.90
9265;DHT22;4669;49.594;10.958;2022-09-28T06:25:53;9.70;99.90
9265;DHT22;4669;49.594;10.958;2022-09-28T06:30:55;9.70;99.90
9265;DHT22;4669;49.594;10.958;2022-09-28T06:35:58;9.80;99.90
9265;DHT22;4669;49.594;10.958;2022-09-28T06:41:01;9.80;99.90
9265;DHT22;4669;49.594;10.958;2022-09-28T16:25:50;12.00;98.10
9265;DHT22;4669;49.594;10.958;2022-09-28T16:31:01;11.90;98.40
9265;DHT22;4669;49.594;10.958;2022-09-28T16:36:03;11.90;98.70
9265;DHT22;4669;49.594;10.958;2022-09-28T16:41:13;11.80;99.00
9265;DHT22;4669;49.594;10.958;2022-09-28T16:46:17;11.80;99.60
9265;DHT22;4669;49.594;10.958;2022-09-28T16:51:20;11.70;99.90
9265;DHT22;4669;49.594;10.958;2022-09-28T16:56:25;11.70;99.90
9265;DHT22;4669;49.594;10.958;2022-09-28T17:01:28;11.70;99.90
9265;DHT22;4669;49.594;10.958;2022-09-28T17:06:31;11.70;99.90
9265;DHT22;4669;49.594;10.958;2022-09-28T17:11:34;11.70;99.90
9265;DHT22;4669;49.594;10.958;2022-09-28T17:16:37;11.60;99.90
9265;DHT22;4669;49.594;10.958;2022-09-28T17:21:39;11.50;99.90
9265;DHT22;4669;49.594;10.958;2022-09-28T17:26:43;11.50;99.90
9265;DHT22;4669;49.594;10.958;2022-09-28T17:31:46;11.50;99.90
9265;DHT22;4669;49.594;10.958;2022-09-28T17:36:48;11.40;99.90
9265;DHT22;4669;49.594;10.958;2022-09-28T17:41:52;11.40;99.90
9265;DHT22;4669;49.594;10.958;2022-09-28T17:46:54;11.40;99.90
9265;DHT22;4669;49.594;10.958;2022-09-28T17:51:56;11.30;99.90
9265;DHT22;4669;49.594;10.958;2022-09-28T17:56:59;11.20;99.90
9265;DHT22;4669;49.594;10.958;2022-09-28T18:02:01;11.10;99.90
9265;DHT22;4669;49.594;10.958;2022-09-28T18:07:03;11.10;99.90
9265;DHT22;4669;49.594;10.958;2022-09-28T18:12:08;11.00;99.90
9265;DHT22;4669;49.594;10.958;2022-09-28T18:17:10;10.90;99.90
9265;DHT22;4669;49.594;10.958;2022-09-28T18:22:12;10.80;99.90
9265;DHT22;4669;49.594;10.958;2022-09-28T18:27:15;10.80;99.90
9265;DHT22;4669;49.594;10.958;2022-09-28T18:32:17;10.70;99.90
9265;DHT22;4669;49.594;10.958;2022-09-28T18:37:19;10.70;99.90
9265;DHT22;4669;49.594;10.958;2022-09-28T18:42:22;10.70;99.90
9265;DHT22;4669;49.594;10.958;2022-09-28T18:47:25;10.70;99.90
9265;DHT22;4669;49.594;10.958;2022-09-28T18:52:27;10.70;99.90
9265;DHT22;4669;49.594;10.958;2022-09-28T18:57:31;10.70;99.90
9265;DHT22;4669;49.594;10.958;2022-09-28T19:02:33;10.60;99.90
9265;DHT22;4669;49.594;10.958;2022-09-28T19:07:35;10.60;99.90
9265;DHT22;4669;49.594;10.958;2022-09-28T19:12:39;10.50;99.90
9265;DHT22;4669;49.594;10.958;2022-09-28T19:17:41;10.50;99.90
9265;DHT22;4669;49.594;10.958;2022-09-28T19:22:43;10.40;99.90
9265;DHT22;4669;49.594;10.958;2022-09-28T19:27:46;10.40;99.90
9265;DHT22;4669;49.594;10.958;2022-09-28T19:32:48;10.30;99.90
9265;DHT22;4669;49.594;10.958;2022-09-28T19:37:50;10.30;99.90
9265;DHT22;4669;49.594;10.958;2022-09-28T19:42:53;10.20;99.90
9265;DHT22;4669;49.594;10.958;2022-09-28T19:47:55;10.20;99.90
9265;DHT22;4669;49.594;10.958;2022-09-28T19:52:58;10.10;99.90
9265;DHT22;4669;49.594;10.958;2022-09-28T19:58:02;10.10;99.90
9265;DHT22;4669;49.594;10.958;2022-09-28T20:03:04;10.00;99.90
9265;DHT22;4669;49.594;10.958;2022-09-28T20:08:06;9.90;99.90
9265;DHT22;4669;49.594;10.958;2022-09-28T20:13:10;9.90;99.90
9265;DHT22;4669;49.594;10.958;2022-09-28T20:18:12;9.80;99.90
9265;DHT22;4669;49.594;10.958;2022-09-28T20:23:14;9.80;99.90
9265;DHT22;4669;49.594;10.958;2022-09-28T20:28:17;9.80;99.90
9265;DHT22;4669;49.594;10.958;2022-09-28T20:33:19;9.90;99.90
9265;DHT22;4669;49.594;10.958;2022-09-28T20:38:21;9.90;99.90
9265;DHT22;4669;49.594;10.958;2022-09-28T20:43:25;9.90;99.90
9265;DHT22;4669;49.594;10.958;2022-09-28T20:48:27;9.90;99.90
9265;DHT22;4669;49.594;10.958;2022-09-28T20:53:29;9.80;99.90
9265;DHT22;4669;49.594;10.958;2022-09-28T20:58:33;9.80;99.90
9265;DHT22;4669;49.594;10.958;2022-09-28T21:03:35;9.90;99.90
9265;DHT22;4669;49.594;10.958;2022-09-28T21:08:38;9.80;99.90
9265;DHT22;4669;49.594;10.958;2022-09-28T21:13:41;9.80;99.90
9265;DHT22;4669;49.594;10.958;2022-09-28T21:18:44;9.90;99.90
9265;DHT22;4669;49.594;10.958;2022-09-28T21:23:46;9.90;99.90
9265;DHT22;4669;49.594;10.958;2022-09-28T21:28:50;9.80;99.90
9265;DHT22;4669;49.594;10.958;2022-09-28T21:33:53;9.80;99.90
9265;DHT22;4669;49.594;10.958;2022-09-28T21:38:55;9.70;99.90
9265;DHT22;4669;49.594;10.958;2022-09-28T21:43:58;9.70;99.90
9265;DHT22;4669;49.594;10.958;2022-09-28T21:49:01;9.70;99.90
9265;DHT22;4669;49.594;10.958;2022-09-28T21:54:03;9.70;99.90
9265;DHT22;4669;49.594;10.958;2022-09-28T21:59:06;9.50;99.90
